Time;durP1;ratioP1;P1;durP2;ratioP2;P2;SDS_P1;SDS_P2;PMS_P1;PMS_P2;Temp;Humidity;BMP_temperature;BMP_pressure;BME280_temperature;BME280_humidity;BME280_pressure;Samples;Min_cycle;Max_cycle;Signal;HPM_P1;HPM_P2
2023/04/06 00:01:40;;;;;;;22.90;9.98;;;;;;;;;;4961484;28;20209;-45
2023/04/06 00:04:07;;;;;;;23.23;10.15;;;;;;;;;;4963269;28;20178;-45
2023/04/06 00:06:33;;;;;;;19.08;10.43;;;;;;;;;;4956642;28;20174;-45
2023/04/06 00:08:59;;;;;;;15.02;9.48;;;;;;;;;;4956534;28;20218;-45
2023/04/06 00:11:26;;;;;;;19.95;9.10;;;;;;;;;;4957917;28;20202;-44
2023/04/06 00:13:52;;;;;;;11.63;7.72;;;;;;;;;;4957572;28;20232;-44
2023/04/06 00:16:18;;;;;;;9.82;8.02;;;;;;;;;;4961568;28;20536;-45
2023/04/06 00:18:44;;;;;;;16.05;9.20;;;;;;;;;;4962923;28;20178;-45
2023/04/06 00:21:14;;;;;;;13.70;8.30;;;;;;;;;;4964067;28;20209;-45
2023/04/06 00:23:41;;;;;;;17.67;10.05;;;;;;;;;;4956199;28;20182;-45
2023/04/06 00:26:07;;;;;;;13.38;8.00;;;;;;;;;;4956416;28;20182;-46
2023/04/06 00:28:32;;;;;;;13.18;8.65;;;;;;;;;;4960537;28;20312;-45
2023/04/06 00:30:59;;;;;;;12.53;8.70;;;;;;;;;;4957789;28;20281;-44
2023/04/06 00:33:25;;;;;;;15.95;9.45;;;;;;;;;;4960995;28;20409;-45
2023/04/06 00:35:51;;;;;;;17.83;10.70;;;;;;;;;;4964015;28;20179;-44
2023/04/06 00:38:17;;;;;;;16.98;11.90;;;;;;;;;;4956072;28;20244;-44
2023/04/06 00:40:44;;;;;;;15.57;9.85;;;;;;;;;;4958989;28;20174;-45
2023/04/06 00:43:11;;;;;;;18.77;10.07;;;;;;;;;;4960535;28;20693;-46
2023/04/06 00:45:38;;;;;;;17.77;9.45;;;;;;;;;;4962153;28;20189;-46
2023/04/06 00:48:05;;;;;;;17.60;10.07;;;;;;;;;;4958765;28;20170;-45
2023/04/06 00:50:31;;;;;;;23.40;11.15;;;;;;;;;;4959235;28;20170;-45
2023/04/06 00:52:58;;;;;;;30.23;14.00;;;;;;;;;;4955289;28;20194;-46
2023/04/06 00:55:24;;;;;;;16.27;11.35;;;;;;;;;;4958868;28;20178;-45
2023/04/06 00:57:50;;;;;;;27.92;9.98;;;;;;;;;;4960322;28;20170;-45
2023/04/06 01:00:17;;;;;;;14.27;8.43;;;;;;;;;;4962083;28;20162;-44
2023/04/06 01:02:44;;;;;;;14.27;9.07;;;;;;;;;;4962515;28;20276;-45
2023/04/06 01:05:11;;;;;;;16.38;9.60;;;;;;;;;;4955646;28;20247;-46
2023/04/06 01:07:37;;;;;;;13.20;9.35;;;;;;;;;;4956487;28;20178;-44
2023/04/06 01:10:03;;;;;;;19.88;9.48;;;;;;;;;;4955027;28;20182;-45
2023/04/06 01:12:30;;;;;;;12.95;9.48;;;;;;;;;;4958703;28;20277;-46
2023/04/06 01:14:55;;;;;;;17.13;10.23;;;;;;;;;;4955417;28;20197;-45
2023/04/06 01:17:21;;;;;;;17.63;10.17;;;;;;;;;;4963164;28;20179;-44
2023/04/06 01:19:49;;;;;;;17.33;10.63;;;;;;;;;;4955482;28;20772;-45
2023/04/06 01:22:18;;;;;;;17.63;10.38;;;;;;;;;;4958037;28;20190;-44
2023/04/06 01:24:44;;;;;;;14.68;9.73;;;;;;;;;;4955629;28;20189;-45
2023/04/06 01:27:10;;;;;;;16.00;9.40;;;;;;;;;;4956080;28;20719;-44
2023/04/06 01:29:36;;;;;;;16.08;9.07;;;;;;;;;;4954438;28;20181;-44
2023/04/06 01:32:02;;;;;;;14.83;10.13;;;;;;;;;;4942047;28;20210;-46
2023/04/06 01:34:29;;;;;;;12.82;7.75;;;;;;;;;;4955320;28;20414;-45
2023/04/06 01:36:55;;;;;;;10.40;8.38;;;;;;;;;;4954940;28;20257;-46
2023/04/06 01:39:21;;;;;;;17.85;9.32;;;;;;;;;;4953932;28;20259;-45
2023/04/06 01:41:47;;;;;;;10.25;8.25;;;;;;;;;;4955025;28;20269;-45
2023/04/06 01:44:13;;;;;;;11.93;7.93;;;;;;;;;;4959915;28;20178;-45
2023/04/06 01:46:39;;;;;;;12.73;8.32;;;;;;;;;;4961470;28;20194;-44
2023/04/06 01:49:05;;;;;;;12.75;8.35;;;;;;;;;;4946091;29;20208;-45
2023/04/06 01:51:31;;;;;;;9.43;7.72;;;;;;;;;;4955867;28;20212;-45
2023/04/06 01:53:57;;;;;;;12.48;7.38;;;;;;;;;;4958075;28;20178;-44
2023/04/06 01:56:23;;;;;;;13.10;8.23;;;;;;;;;;4957964;28;20508;-45
2023/04/06 01:58:49;;;;;;;15.47;8.07;;;;;;;;;;4956571;28;20412;-45
2023/04/06 02:01:15;;;;;;;9.57;7.07;;;;;;;;;;4947785;28;20410;-44
2023/04/06 02:03:41;;;;;;;12.73;7.90;;;;;;;;;;4962601;28;20414;-45
2023/04/06 02:06:07;;;;;;;12.53;7.60;;;;;;;;;;4954615;28;20544;-44
2023/04/06 02:08:33;;;;;;;11.17;6.60;;;;;;;;;;4957318;28;20430;-45
2023/04/06 02:10:59;;;;;;;12.33;8.10;;;;;;;;;;4957861;28;20464;-45
2023/04/06 02:13:25;;;;;;;10.40;7.73;;;;;;;;;;4958896;28;20485;-46
2023/04/06 02:15:51;;;;;;;10.47;7.70;;;;;;;;;;4957478;28;20487;-46
2023/04/06 02:18:18;;;;;;;13.30;7.20;;;;;;;;;;4960472;28;20406;-45
2023/04/06 02:20:44;;;;;;;13.70;8.80;;;;;;;;;;4954394;28;20402;-46
2023/04/06 02:23:11;;;;;;;10.75;7.32;;;;;;;;;;4956911;28;20195;-45
2023/04/06 02:25:37;;;;;;;8.98;6.15;;;;;;;;;;4958710;28;20170;-45
2023/04/06 02:28:03;;;;;;;13.90;8.30;;;;;;;;;;4954212;28;20167;-44
2023/04/06 02:30:29;;;;;;;13.45;7.78;;;;;;;;;;4961204;28;20476;-44
2023/04/06 02:32:55;;;;;;;11.30;7.35;;;;;;;;;;4954422;28;20198;-45
2023/04/06 02:35:21;;;;;;;11.70;7.45;;;;;;;;;;4955109;28;20175;-46
2023/04/06 02:37:47;;;;;;;9.60;7.20;;;;;;;;;;4955125;28;20229;-46
2023/04/06 02:40:14;;;;;;;11.43;8.07;;;;;;;;;;4953621;28;20596;-45
2023/04/06 02:42:40;;;;;;;16.42;9.00;;;;;;;;;;4956310;28;20556;-45
2023/04/06 02:45:06;;;;;;;13.70;9.03;;;;;;;;;;4961455;28;20176;-45
2023/04/06 02:47:33;;;;;;;12.85;8.00;;;;;;;;;;4953959;28;20493;-45
2023/04/06 02:49:59;;;;;;;14.75;8.13;;;;;;;;;;4956276;28;20209;-44
2023/04/06 02:52:25;;;;;;;9.80;7.67;;;;;;;;;;4956110;28;20632;-46
2023/04/06 02:54:51;;;;;;;14.88;8.88;;;;;;;;;;4955240;28;20406;-45
2023/04/06 02:57:17;;;;;;;18.90;9.40;;;;;;;;;;4959439;28;20181;-45
2023/04/06 02:59:43;;;;;;;10.10;7.38;;;;;;;;;;4961237;28;20402;-46
2023/04/06 03:02:09;;;;;;;13.32;7.35;;;;;;;;;;4953445;28;20194;-45
2023/04/06 03:04:35;;;;;;;11.77;7.45;;;;;;;;;;4956051;28;20185;-45
2023/04/06 03:07:01;;;;;;;11.27;7.30;;;;;;;;;;4945670;29;20178;-46
2023/04/06 03:09:27;;;;;;;13.63;8.70;;;;;;;;;;4952602;28;20461;-45
2023/04/06 03:11:53;;;;;;;17.30;8.30;;;;;;;;;;4954131;28;20461;-45
2023/04/06 03:14:21;;;;;;;23.10;11.95;;;;;;;;;;4959227;28;20426;-44
2023/04/06 03:16:48;;;;;;;38.45;13.88;;;;;;;;;;4953568;28;20521;-45
2023/04/06 03:19:14;;;;;;;27.38;12.57;;;;;;;;;;4954854;28;20251;-44
2023/04/06 03:21:41;;;;;;;30.48;12.10;;;;;;;;;;4957212;28;20198;-45
2023/04/06 03:24:07;;;;;;;24.25;11.98;;;;;;;;;;4958635;28;20182;-44
2023/04/06 03:26:33;;;;;;;23.38;11.95;;;;;;;;;;4960277;28;20176;-44
2023/04/06 03:28:59;;;;;;;22.40;10.88;;;;;;;;;;4953778;28;20184;-44
2023/04/06 03:31:26;;;;;;;24.20;12.13;;;;;;;;;;4952981;28;20553;-44
2023/04/06 03:33:52;;;;;;;24.35;11.15;;;;;;;;;;4959334;28;20181;-44
2023/04/06 03:36:18;;;;;;;12.53;8.20;;;;;;;;;;4958651;28;20174;-44
2023/04/06 03:38:44;;;;;;;13.80;8.73;;;;;;;;;;4956596;28;20500;-44
2023/04/06 03:41:10;;;;;;;12.05;7.30;;;;;;;;;;4953164;28;20410;-44
2023/04/06 03:43:36;;;;;;;13.85;8.85;;;;;;;;;;4953219;28;20642;-44
2023/04/06 03:46:02;;;;;;;9.10;7.28;;;;;;;;;;4957699;28;20180;-44
2023/04/06 03:48:28;;;;;;;15.23;8.67;;;;;;;;;;4958625;28;20634;-44
2023/04/06 03:50:54;;;;;;;12.43;6.77;;;;;;;;;;4952948;28;20553;-44
2023/04/06 03:53:20;;;;;;;13.70;6.72;;;;;;;;;;4953156;28;20436;-44
2023/04/06 03:55:46;;;;;;;15.82;7.78;;;;;;;;;;4956007;28;20174;-44
2023/04/06 03:58:12;;;;;;;9.25;6.57;;;;;;;;;;4954460;28;20171;-44
2023/04/06 04:00:38;;;;;;;8.03;6.80;;;;;;;;;;4956155;28;20377;-44
2023/04/06 04:03:04;;;;;;;9.13;6.80;;;;;;;;;;4958835;28;20437;-44
2023/04/06 04:05:30;;;;;;;13.18;7.15;;;;;;;;;;4960650;28;20174;-44
2023/04/06 04:07:56;;;;;;;7.83;6.17;;;;;;;;;;4954394;28;20190;-44
2023/04/06 04:10:22;;;;;;;10.52;6.60;;;;;;;;;;4955774;28;20534;-44
2023/04/06 04:12:48;;;;;;;12.30;6.80;;;;;;;;;;4951921;28;20749;-44
2023/04/06 04:15:14;;;;;;;13.23;7.60;;;;;;;;;;4955781;28;20429;-45
2023/04/06 04:17:40;;;;;;;9.97;7.30;;;;;;;;;;4955842;28;20444;-44
2023/04/06 04:20:07;;;;;;;9.20;6.50;;;;;;;;;;4960320;28;20413;-44
2023/04/06 04:22:33;;;;;;;11.95;7.72;;;;;;;;;;4952712;28;20234;-44
2023/04/06 04:24:59;;;;;;;7.50;6.37;;;;;;;;;;4956761;28;20213;-44
2023/04/06 04:27:25;;;;;;;11.65;6.22;;;;;;;;;;4960376;28;20437;-44
2023/04/06 04:29:51;;;;;;;11.53;6.60;;;;;;;;;;4960984;28;20237;-44
2023/04/06 04:32:17;;;;;;;9.23;6.37;;;;;;;;;;4960358;28;20465;-44
2023/04/06 04:34:43;;;;;;;13.05;7.45;;;;;;;;;;4958101;28;20402;-44
2023/04/06 04:37:09;;;;;;;11.60;7.10;;;;;;;;;;4956371;28;20198;-44
2023/04/06 04:39:35;;;;;;;9.52;6.20;;;;;;;;;;4958595;28;20179;-44
2023/04/06 04:42:01;;;;;;;12.20;7.80;;;;;;;;;;4960107;28;20258;-44
2023/04/06 04:44:27;;;;;;;11.60;8.23;;;;;;;;;;4961329;28;20426;-44
2023/04/06 04:46:53;;;;;;;11.67;7.67;;;;;;;;;;4963551;28;20776;-44
2023/04/06 04:49:19;;;;;;;10.60;8.03;;;;;;;;;;4956089;28;20413;-45
2023/04/06 04:51:45;;;;;;;12.82;7.85;;;;;;;;;;4958290;28;20472;-44
2023/04/06 04:54:11;;;;;;;14.97;7.63;;;;;;;;;;4957464;28;20166;-44
2023/04/06 04:56:37;;;;;;;13.95;7.38;;;;;;;;;;4959048;28;20504;-44
2023/04/06 04:59:03;;;;;;;11.90;7.63;;;;;;;;;;4961532;28;20634;-44
2023/04/06 05:01:29;;;;;;;11.85;7.85;;;;;;;;;;4962964;28;20286;-45
2023/04/06 05:03:55;;;;;;;12.80;7.65;;;;;;;;;;4955702;28;20315;-44
2023/04/06 05:06:21;;;;;;;11.52;7.90;;;;;;;;;;4958109;28;20308;-44
2023/04/06 05:08:47;;;;;;;13.10;8.30;;;;;;;;;;4955592;28;20696;-44
2023/04/06 05:11:13;;;;;;;11.50;8.20;;;;;;;;;;4957347;28;20476;-44
2023/04/06 05:13:39;;;;;;;13.90;9.00;;;;;;;;;;4957556;28;20449;-45
2023/04/06 05:16:06;;;;;;;13.27;8.20;;;;;;;;;;4962793;28;20270;-44
2023/04/06 05:18:32;;;;;;;15.02;8.50;;;;;;;;;;4955763;28;20185;-44
2023/04/06 05:20:58;;;;;;;12.40;7.93;;;;;;;;;;4957861;28;20175;-44
2023/04/06 05:23:24;;;;;;;9.00;6.93;;;;;;;;;;4959293;28;20204;-44
2023/04/06 05:25:50;;;;;;;12.77;7.55;;;;;;;;;;4960290;28;20416;-44
2023/04/06 05:28:16;;;;;;;14.38;7.60;;;;;;;;;;4959222;28;20181;-44
2023/04/06 05:30:43;;;;;;;8.85;7.47;;;;;;;;;;4957554;28;20180;-44
2023/04/06 05:33:09;;;;;;;9.98;6.72;;;;;;;;;;4954768;28;20194;-44
2023/04/06 05:35:35;;;;;;;9.27;6.35;;;;;;;;;;4956516;28;20216;-44
2023/04/06 05:38:01;;;;;;;11.23;7.70;;;;;;;;;;4958839;28;20557;-44
2023/04/06 05:40:27;;;;;;;12.43;7.10;;;;;;;;;;4960074;28;20443;-44
2023/04/06 05:42:54;;;;;;;12.35;7.22;;;;;;;;;;4961239;28;20918;-44
2023/04/06 05:45:21;;;;;;;12.85;7.93;;;;;;;;;;4954884;28;20170;-44
2023/04/06 05:47:47;;;;;;;11.18;7.90;;;;;;;;;;4957016;28;20185;-44
2023/04/06 05:50:15;;;;;;;9.95;6.80;;;;;;;;;;4955724;28;20193;-44
2023/04/06 05:52:43;;;;;;;12.52;7.22;;;;;;;;;;4957091;28;20194;-43
2023/04/06 05:55:10;;;;;;;16.27;8.82;;;;;;;;;;4960677;28;20178;-44
2023/04/06 05:57:36;;;;;;;10.25;7.50;;;;;;;;;;4954537;28;20170;-44
2023/04/06 06:00:03;;;;;;;13.23;8.20;;;;;;;;;;4954718;28;20179;-44
2023/04/06 06:02:31;;;;;;;14.88;8.95;;;;;;;;;;4956715;28;20194;-44
2023/04/06 06:04:57;;;;;;;14.73;10.00;;;;;;;;;;4958422;28;20265;-44
2023/04/06 06:07:24;;;;;;;14.68;8.70;;;;;;;;;;4958285;28;20540;-44
2023/04/06 06:09:50;;;;;;;10.05;7.82;;;;;;;;;;4956681;28;20646;-44
2023/04/06 06:12:16;;;;;;;14.38;8.68;;;;;;;;;;4959645;28;20281;-44
2023/04/06 06:14:42;;;;;;;14.85;8.00;;;;;;;;;;4954194;28;20239;-44
2023/04/06 06:17:08;;;;;;;10.37;7.20;;;;;;;;;;4954347;28;20175;-44
2023/04/06 06:19:34;;;;;;;11.88;7.63;;;;;;;;;;4958097;28;20438;-44
2023/04/06 06:22:02;;;;;;;8.35;7.10;;;;;;;;;;4959390;28;20202;-44
2023/04/06 06:24:28;;;;;;;17.48;8.25;;;;;;;;;;4960202;28;20232;-45
2023/04/06 06:26:54;;;;;;;10.73;7.28;;;;;;;;;;4954038;28;20178;-44
2023/04/06 06:29:20;;;;;;;7.50;6.27;;;;;;;;;;4951266;28;20183;-44
2023/04/06 06:31:46;;;;;;;10.20;6.43;;;;;;;;;;4954818;28;20531;-44
2023/04/06 06:34:12;;;;;;;8.00;7.10;;;;;;;;;;4957967;28;20414;-44
2023/04/06 06:36:39;;;;;;;11.13;8.27;;;;;;;;;;4959082;28;20425;-44
2023/04/06 06:39:05;;;;;;;10.88;8.02;;;;;;;;;;4960944;28;20174;-44
2023/04/06 06:41:31;;;;;;;14.25;6.47;;;;;;;;;;4953828;28;20281;-44
2023/04/06 06:43:57;;;;;;;10.23;6.97;;;;;;;;;;4956235;28;20261;-44
2023/04/06 06:46:23;;;;;;;8.93;7.67;;;;;;;;;;4955618;28;20408;-44
2023/04/06 06:48:49;;;;;;;12.20;7.70;;;;;;;;;;4955154;28;20403;-46
2023/04/06 06:51:15;;;;;;;7.45;6.65;;;;;;;;;;4958710;28;20493;-44
2023/04/06 06:53:41;;;;;;;11.52;7.63;;;;;;;;;;4968585;28;20169;-45
2023/04/06 06:56:07;;;;;;;9.35;6.85;;;;;;;;;;4954385;28;20167;-44
2023/04/06 06:58:33;;;;;;;13.23;7.90;;;;;;;;;;4953662;28;20196;-45
2023/04/06 07:00:59;;;;;;;12.73;8.50;;;;;;;;;;4948599;28;20453;-45
2023/04/06 07:03:26;;;;;;;14.60;8.20;;;;;;;;;;4952254;28;20796;-44
2023/04/06 07:05:54;;;;;;;10.93;7.60;;;;;;;;;;4954288;28;20284;-45
2023/04/06 07:08:21;;;;;;;12.40;8.60;;;;;;;;;;4954291;28;20170;-45
2023/04/06 07:10:47;;;;;;;13.33;7.03;;;;;;;;;;4953761;28;20408;-44
2023/04/06 07:13:18;;;;;;;8.37;6.77;;;;;;;;;;4954789;28;20463;-44
2023/04/06 07:15:44;;;;;;;10.13;6.00;;;;;;;;;;4955763;28;20477;-44
2023/04/06 07:18:10;;;;;;;9.67;6.20;;;;;;;;;;4958768;28;20439;-44
2023/04/06 07:20:36;;;;;;;7.20;5.90;;;;;;;;;;4951957;28;20412;-44
2023/04/06 07:23:02;;;;;;;7.10;5.87;;;;;;;;;;4952889;28;20432;-44
2023/04/06 07:25:28;;;;;;;9.07;7.60;;;;;;;;;;4954923;28;20455;-45
2023/04/06 07:27:55;;;;;;;7.07;6.27;;;;;;;;;;4955101;28;20436;-46
2023/04/06 07:30:21;;;;;;;6.93;6.23;;;;;;;;;;4955432;28;20428;-47
2023/04/06 07:32:48;;;;;;;8.17;6.50;;;;;;;;;;4960887;28;20442;-45
2023/04/06 07:35:14;;;;;;;8.67;6.20;;;;;;;;;;4963905;28;20423;-45
2023/04/06 07:37:40;;;;;;;8.03;7.10;;;;;;;;;;4956191;28;20394;-46
2023/04/06 07:40:06;;;;;;;7.80;6.23;;;;;;;;;;4958136;28;20419;-47
2023/04/06 07:42:32;;;;;;;11.43;6.90;;;;;;;;;;4959535;28;20407;-47
2023/04/06 07:44:59;;;;;;;7.67;6.73;;;;;;;;;;4957519;28;20377;-46
2023/04/06 07:47:25;;;;;;;7.83;6.50;;;;;;;;;;4960056;28;20429;-46
2023/04/06 07:49:51;;;;;;;8.03;6.83;;;;;;;;;;4963534;28;20410;-45
2023/04/06 07:52:17;;;;;;;7.70;6.37;;;;;;;;;;4956464;28;20595;-46
2023/04/06 07:54:43;;;;;;;9.50;6.50;;;;;;;;;;4958658;28;20498;-47
2023/04/06 07:57:09;;;;;;;11.43;7.07;;;;;;;;;;4957788;28;20423;-47
2023/04/06 07:59:35;;;;;;;8.90;7.60;;;;;;;;;;4957546;28;20404;-46
2023/04/06 08:02:01;;;;;;;9.73;7.43;;;;;;;;;;4958451;28;20403;-47
2023/04/06 08:04:27;;;;;;;9.70;8.00;;;;;;;;;;4960057;28;20397;-47
2023/04/06 08:06:53;;;;;;;9.23;7.00;;;;;;;;;;4960001;28;20492;-45
2023/04/06 08:09:19;;;;;;;12.60;7.47;;;;;;;;;;4957859;28;20396;-46
2023/04/06 08:11:46;;;;;;;8.63;6.60;;;;;;;;;;4959355;28;20450;-45
2023/04/06 08:14:12;;;;;;;7.60;6.80;;;;;;;;;;4961815;28;20937;-45
2023/04/06 08:16:38;;;;;;;8.27;7.47;;;;;;;;;;4963079;28;20413;-46
2023/04/06 08:19:04;;;;;;;7.50;6.70;;;;;;;;;;4957017;28;20456;-45
2023/04/06 08:21:30;;;;;;;11.30;8.17;;;;;;;;;;4956789;28;20917;-44
2023/04/06 08:23:56;;;;;;;9.80;7.73;;;;;;;;;;4957199;28;20782;-44
2023/04/06 08:26:22;;;;;;;10.23;7.10;;;;;;;;;;4959874;28;20432;-45
2023/04/06 08:28:48;;;;;;;9.30;8.10;;;;;;;;;;4954898;28;20421;-45
2023/04/06 08:31:14;;;;;;;9.90;7.90;;;;;;;;;;4962723;28;20923;-44
2023/04/06 08:33:41;;;;;;;11.70;8.00;;;;;;;;;;4957065;28;20948;-45
2023/04/06 08:36:08;;;;;;;8.83;6.93;;;;;;;;;;4957743;28;20420;-45
2023/04/06 08:38:34;;;;;;;9.30;7.47;;;;;;;;;;4960257;28;20827;-43
2023/04/06 08:41:00;;;;;;;8.40;7.30;;;;;;;;;;4956438;28;20445;-44
2023/04/06 08:43:27;;;;;;;9.63;7.93;;;;;;;;;;4962823;28;20426;-48
2023/04/06 08:45:52;;;;;;;8.53;7.70;;;;;;;;;;4964313;28;20974;-48
2023/04/06 08:48:19;;;;;;;9.57;8.60;;;;;;;;;;4956367;28;20406;-43
2023/04/06 08:50:45;;;;;;;10.00;8.07;;;;;;;;;;4957282;28;20414;-45
2023/04/06 08:53:11;;;;;;;8.00;7.20;;;;;;;;;;4959247;28;20455;-45
2023/04/06 08:55:38;;;;;;;9.30;7.53;;;;;;;;;;4960883;28;20412;-44
2023/04/06 08:58:04;;;;;;;11.17;8.17;;;;;;;;;;4954974;28;20801;-45
2023/04/06 09:00:30;;;;;;;11.00;8.43;;;;;;;;;;4954995;28;20423;-45
2023/04/06 09:02:57;;;;;;;13.50;8.20;;;;;;;;;;4956247;28;20450;-47
2023/04/06 09:05:25;;;;;;;9.33;7.90;;;;;;;;;;4957681;28;20422;-46
2023/04/06 09:07:52;;;;;;;13.67;10.60;;;;;;;;;;4955487;28;20909;-43
2023/04/06 09:10:18;;;;;;;12.37;9.23;;;;;;;;;;4960364;28;21010;-43
2023/04/06 09:12:44;;;;;;;11.30;8.53;;;;;;;;;;4961165;28;20468;-44
2023/04/06 09:15:20;;;;;;;12.73;9.50;;;;;;;;;;4975255;28;20421;-48
2023/04/06 09:17:46;;;;;;;10.90;8.83;;;;;;;;;;4975175;28;20934;-45
2023/04/06 09:20:12;;;;;;;12.80;9.67;;;;;;;;;;4974607;28;20901;-45
2023/04/06 09:22:40;;;;;;;12.30;8.50;;;;;;;;;;4954906;28;20440;-44
2023/04/06 09:25:06;;;;;;;15.47;9.73;;;;;;;;;;4974386;28;20491;-43
2023/04/06 09:27:33;;;;;;;15.27;9.30;;;;;;;;;;4964035;28;20754;-45
2023/04/06 09:30:13;;;;;;;14.10;10.53;;;;;;;;;;4955462;28;20412;-45
2023/04/06 09:32:49;;;;;;;15.07;10.17;;;;;;;;;;4966472;28;20446;-45
2023/04/06 09:35:15;;;;;;;13.40;9.93;;;;;;;;;;4974413;28;20394;-44
2023/04/06 09:37:41;;;;;;;14.17;9.80;;;;;;;;;;4974315;28;20386;-44
2023/04/06 09:40:08;;;;;;;14.73;9.53;;;;;;;;;;4974077;28;20409;-44
2023/04/06 09:42:35;;;;;;;16.70;9.67;;;;;;;;;;4973921;28;20423;-44
2023/04/06 09:45:01;;;;;;;16.00;10.50;;;;;;;;;;4974165;28;20430;-44
2023/04/06 09:47:27;;;;;;;13.20;9.70;;;;;;;;;;4974386;28;20426;-44
2023/04/06 09:49:58;;;;;;;13.33;10.40;;;;;;;;;;4974195;28;20415;-44
2023/04/06 09:52:31;;;;;;;14.93;10.87;;;;;;;;;;4973355;28;20864;-44
2023/04/06 09:55:00;;;;;;;15.20;10.27;;;;;;;;;;4974320;28;20387;-47
2023/04/06 09:57:29;;;;;;;14.73;10.10;;;;;;;;;;4968496;28;20591;-44
2023/04/06 10:00:09;;;;;;;17.17;10.30;;;;;;;;;;4958648;28;20478;-43
2023/04/06 10:02:41;;;;;;;19.60;10.20;;;;;;;;;;4973536;28;20444;-44
2023/04/06 10:05:16;;;;;;;17.73;10.17;;;;;;;;;;4973801;28;20411;-45
2023/04/06 10:07:43;;;;;;;15.80;10.30;;;;;;;;;;4962923;28;20444;-52
2023/04/06 10:10:10;;;;;;;17.03;11.47;;;;;;;;;;4973645;28;20500;-46
2023/04/06 10:12:37;;;;;;;17.30;11.70;;;;;;;;;;4976025;28;20542;-46
2023/04/06 10:15:04;;;;;;;20.50;11.60;;;;;;;;;;4972737;28;20434;-47
2023/04/06 10:17:30;;;;;;;13.17;10.07;;;;;;;;;;4960034;28;20415;-45
2023/04/06 10:20:16;;;;;;;16.43;10.60;;;;;;;;;;4961275;28;20392;-45
2023/04/06 10:22:56;;;;;;;16.90;11.77;;;;;;;;;;4962114;28;20426;-45
2023/04/06 10:25:29;;;;;;;17.57;11.17;;;;;;;;;;4963417;28;20422;-48
2023/04/06 10:28:08;;;;;;;16.30;11.83;;;;;;;;;;4959223;28;20438;-48
2023/04/06 10:30:35;;;;;;;13.73;9.77;;;;;;;;;;4956547;28;20453;-45
2023/04/06 10:33:02;;;;;;;20.00;12.97;;;;;;;;;;4953757;28;20470;-45
2023/04/06 10:35:38;;;;;;;15.87;12.30;;;;;;;;;;4949656;29;20412;-46
2023/04/06 10:38:05;;;;;;;20.07;13.10;;;;;;;;;;4958875;28;20423;-46
2023/04/06 10:40:31;;;;;;;17.73;12.70;;;;;;;;;;4958844;28;21141;-45
2023/04/06 10:43:07;;;;;;;14.47;10.87;;;;;;;;;;4954257;28;20443;-46
2023/04/06 10:45:33;;;;;;;14.93;11.37;;;;;;;;;;4953114;28;20970;-45
2023/04/06 10:47:59;;;;;;;19.93;11.67;;;;;;;;;;4960507;28;20436;-45
2023/04/06 10:50:25;;;;;;;17.43;12.00;;;;;;;;;;4957561;28;20406;-45
2023/04/06 10:53:01;;;;;;;18.47;12.10;;;;;;;;;;4955097;28;20485;-44
2023/04/06 10:55:28;;;;;;;21.27;15.37;;;;;;;;;;4957802;28;20400;-44
2023/04/06 10:57:54;;;;;;;26.97;17.30;;;;;;;;;;4952589;29;20406;-44
2023/04/06 11:00:20;;;;;;;15.33;12.30;;;;;;;;;;4956389;28;20822;-44
2023/04/06 11:02:47;;;;;;;14.13;10.90;;;;;;;;;;4957261;28;20433;-44
2023/04/06 11:05:13;;;;;;;21.50;13.10;;;;;;;;;;4959594;28;20414;-43
2023/04/06 11:07:40;;;;;;;21.43;13.10;;;;;;;;;;4953477;28;20437;-44
2023/04/06 11:10:06;;;;;;;17.70;12.03;;;;;;;;;;4952816;28;21991;-46
2023/04/06 11:12:32;;;;;;;16.60;11.80;;;;;;;;;;4952848;28;20469;-45
2023/04/06 11:15:05;;;;;;;19.97;13.37;;;;;;;;;;4953327;29;20429;-45
2023/04/06 11:17:32;;;;;;;15.20;11.80;;;;;;;;;;4949406;29;20402;-43
2023/04/06 11:19:58;;;;;;;16.27;11.60;;;;;;;;;;4959097;28;20406;-43
2023/04/06 11:22:25;;;;;;;18.33;13.23;;;;;;;;;;4960755;28;20439;-44
2023/04/06 11:24:51;;;;;;;19.33;13.40;;;;;;;;;;4952847;28;20469;-44
2023/04/06 11:27:17;;;;;;;21.80;14.60;;;;;;;;;;4956059;28;20418;-43
2023/04/06 11:29:45;;;;;;;18.57;13.97;;;;;;;;;;4957518;28;20410;-46
2023/04/06 11:32:11;;;;;;;20.53;14.23;;;;;;;;;;4955375;28;20472;-45
2023/04/06 11:34:38;;;;;;;20.63;15.00;;;;;;;;;;4959462;28;20419;-44
2023/04/06 11:37:13;;;;;;;25.23;15.43;;;;;;;;;;4949849;29;20402;-45
2023/04/06 11:39:40;;;;;;;27.73;17.90;;;;;;;;;;4957290;28;20406;-44
2023/04/06 11:42:06;;;;;;;21.97;15.40;;;;;;;;;;4959806;28;20477;-44
2023/04/06 11:44:45;;;;;;;25.67;16.10;;;;;;;;;;4961792;28;20753;-45
2023/04/06 11:47:12;;;;;;;21.07;14.60;;;;;;;;;;4956642;28;20389;-44
2023/04/06 11:49:39;;;;;;;20.90;14.10;;;;;;;;;;4964465;28;20424;-43
2023/04/06 11:52:15;;;;;;;19.00;13.60;;;;;;;;;;4956584;28;20520;-45
2023/04/06 11:54:41;;;;;;;22.67;15.37;;;;;;;;;;4959744;28;20812;-46
2023/04/06 11:57:09;;;;;;;21.57;15.03;;;;;;;;;;4957531;28;20407;-46
2023/04/06 11:59:35;;;;;;;18.30;13.30;;;;;;;;;;4960541;28;20406;-43
2023/04/06 12:02:04;;;;;;;18.23;11.77;;;;;;;;;;4962262;28;21000;-44
2023/04/06 12:04:30;;;;;;;19.80;12.97;;;;;;;;;;4961707;28;20918;-44
2023/04/06 12:06:56;;;;;;;18.40;11.67;;;;;;;;;;4957822;28;20393;-46
2023/04/06 12:09:22;;;;;;;17.10;12.50;;;;;;;;;;4957013;28;20421;-46
2023/04/06 12:11:48;;;;;;;19.23;12.57;;;;;;;;;;4957732;28;20864;-45
2023/04/06 12:14:14;;;;;;;20.97;12.73;;;;;;;;;;4959050;28;20409;-48
2023/04/06 12:16:41;;;;;;;14.60;11.17;;;;;;;;;;4961484;28;20488;-46
2023/04/06 12:19:07;;;;;;;18.10;11.10;;;;;;;;;;4966177;28;20403;-48
2023/04/06 12:21:35;;;;;;;19.10;11.90;;;;;;;;;;4958152;28;20434;-47
2023/04/06 12:24:00;;;;;;;14.20;10.27;;;;;;;;;;4961494;28;20453;-47
2023/04/06 12:26:27;;;;;;;15.43;10.53;;;;;;;;;;4962648;28;20415;-48
2023/04/06 12:28:53;;;;;;;14.93;10.97;;;;;;;;;;4963766;28;20422;-47
2023/04/06 12:31:21;;;;;;;17.57;12.13;;;;;;;;;;4963512;28;20458;-47
2023/04/06 12:33:48;;;;;;;17.50;11.37;;;;;;;;;;4960774;28;20457;-48
2023/04/06 12:36:19;;;;;;;16.73;10.90;;;;;;;;;;4957330;28;20431;-48
2023/04/06 12:38:45;;;;;;;14.77;10.20;;;;;;;;;;4955211;29;20411;-47
2023/04/06 12:41:12;;;;;;;14.40;10.33;;;;;;;;;;4962468;28;20404;-44
2023/04/06 12:43:38;;;;;;;20.03;11.77;;;;;;;;;;4958827;28;20390;-47
2023/04/06 12:46:04;;;;;;;16.20;10.73;;;;;;;;;;4965231;28;20910;-47
2023/04/06 12:48:31;;;;;;;18.20;11.83;;;;;;;;;;4958854;28;20457;-48
2023/04/06 12:50:58;;;;;;;14.80;10.97;;;;;;;;;;4960060;28;20430;-46
2023/04/06 12:53:24;;;;;;;15.03;9.90;;;;;;;;;;4958882;28;20435;-48
2023/04/06 12:55:50;;;;;;;12.87;9.90;;;;;;;;;;4956446;28;20409;-47
2023/04/06 12:58:17;;;;;;;15.57;11.10;;;;;;;;;;4951187;28;20418;-47
2023/04/06 13:00:42;;;;;;;14.57;10.97;;;;;;;;;;4958291;28;20425;-46
2023/04/06 13:03:09;;;;;;;15.83;10.90;;;;;;;;;;4953799;28;20442;-45
2023/04/06 13:05:35;;;;;;;16.10;10.90;;;;;;;;;;4953964;28;20430;-47
2023/04/06 13:08:01;;;;;;;19.17;10.70;;;;;;;;;;4959712;28;20509;-46
2023/04/06 13:10:27;;;;;;;17.47;10.40;;;;;;;;;;4960961;28;20433;-45
2023/04/06 13:12:53;;;;;;;14.50;10.53;;;;;;;;;;4957529;28;20455;-46
2023/04/06 13:15:19;;;;;;;16.00;10.20;;;;;;;;;;4960258;28;20413;-45
2023/04/06 13:17:45;;;;;;;21.83;11.63;;;;;;;;;;4960295;28;20428;-47
2023/04/06 13:20:11;;;;;;;15.93;9.93;;;;;;;;;;4959328;28;20393;-47
2023/04/06 13:22:37;;;;;;;13.50;9.80;;;;;;;;;;4961295;28;20927;-46
2023/04/06 13:25:03;;;;;;;15.13;11.53;;;;;;;;;;4958933;28;20413;-47
2023/04/06 13:27:33;;;;;;;17.10;10.73;;;;;;;;;;4965757;28;20851;-46
2023/04/06 13:29:59;;;;;;;13.43;10.10;;;;;;;;;;4978351;28;20492;-47
2023/04/06 13:32:26;;;;;;;14.03;9.50;;;;;;;;;;4978276;28;20487;-47
2023/04/06 13:34:54;;;;;;;14.70;8.73;;;;;;;;;;4979017;28;20454;-46
2023/04/06 13:37:20;;;;;;;17.23;10.33;;;;;;;;;;4960713;28;20503;-47
2023/04/06 13:39:46;;;;;;;14.13;9.03;;;;;;;;;;4960400;28;20503;-48
2023/04/06 13:42:12;;;;;;;15.33;10.20;;;;;;;;;;4961218;28;20453;-47
2023/04/06 13:44:38;;;;;;;14.60;10.43;;;;;;;;;;4966999;28;20871;-49
2023/04/06 13:47:04;;;;;;;19.07;10.80;;;;;;;;;;4975609;28;20419;-48
2023/04/06 13:49:30;;;;;;;15.47;10.20;;;;;;;;;;4962531;28;20395;-47
2023/04/06 13:51:56;;;;;;;14.90;10.20;;;;;;;;;;4969519;28;20446;-46
2023/04/06 13:54:22;;;;;;;18.80;11.63;;;;;;;;;;4957374;29;20409;-46
2023/04/06 13:56:48;;;;;;;13.37;9.67;;;;;;;;;;4956908;28;20423;-46
2023/04/06 13:59:14;;;;;;;17.33;10.97;;;;;;;;;;4954799;28;20521;-45
2023/04/06 14:01:40;;;;;;;18.60;11.67;;;;;;;;;;4955326;28;20437;-47
2023/04/06 14:04:06;;;;;;;16.60;11.63;;;;;;;;;;4964634;28;20448;-47
2023/04/06 14:06:32;;;;;;;18.90;11.40;;;;;;;;;;4955348;28;20859;-46
2023/04/06 14:08:59;;;;;;;16.00;10.77;;;;;;;;;;4958894;28;20424;-47
2023/04/06 14:11:26;;;;;;;16.70;11.33;;;;;;;;;;4960608;28;20472;-48
2023/04/06 14:13:52;;;;;;;14.70;10.20;;;;;;;;;;4957928;28;20415;-47
2023/04/06 14:16:19;;;;;;;14.83;10.83;;;;;;;;;;4960680;28;20512;-46
2023/04/06 14:18:54;;;;;;;15.20;11.10;;;;;;;;;;5113611;27;20546;-46
2023/04/06 14:21:20;;;;;;;16.57;10.17;;;;;;;;;;5113033;28;20409;-46
2023/04/06 14:23:46;;;;;;;12.77;8.33;;;;;;;;;;5112094;28;20739;-47
2023/04/06 14:26:12;;;;;;;11.20;7.53;;;;;;;;;;5112637;28;20401;-46